createdAt,value
2022-10-28T00:01:26.999Z,83.90
2022-10-28T00:03:57.828Z,83.70
2022-10-28T00:06:29.105Z,83.60
2022-10-28T00:08:58.029Z,83.80
2022-10-28T00:11:30.901Z,83.90
2022-10-28T00:14:02.585Z,83.90
2022-10-28T00:16:33.436Z,83.80
2022-10-28T00:19:03.861Z,83.70
2022-10-28T00:21:34.698Z,83.70
2022-10-28T00:24:03.209Z,83.80
2022-10-28T00:26:36.433Z,83.80
2022-10-28T00:29:09.371Z,83.90
2022-10-28T00:31:38.854Z,83.80
2022-10-28T00:34:12.274Z,83.60
2022-10-28T00:36:43.563Z,83.60
2022-10-28T00:39:15.142Z,83.70
2022-10-28T00:41:48.054Z,83.70
2022-10-28T00:44:55.417Z,83.60
2022-10-28T00:47:44.334Z,83.60
2022-10-28T00:50:28.759Z,83.70
2022-10-28T00:53:02.184Z,83.80
2022-10-28T00:55:31.500Z,83.90
2022-10-28T00:58:03.942Z,83.80
2022-10-28T01:00:32.445Z,83.80
2022-10-28T01:03:00.853Z,83.80
2022-10-28T01:05:31.691Z,83.90
2022-10-28T01:08:03.978Z,84.00
2022-10-28T01:11:00.677Z,84.10
2022-10-28T01:13:43.235Z,84.20
2022-10-28T01:16:27.740Z,84.20
2022-10-28T01:19:14.166Z,84.20
2022-10-28T01:22:20.747Z,84.30
2022-10-28T01:25:15.161Z,84.50
2022-10-28T01:28:19.684Z,84.50
2022-10-28T01:31:21.445Z,84.50
2022-10-28T01:33:55.615Z,84.60
2022-10-28T01:36:43.245Z,84.60
2022-10-28T01:39:24.968Z,84.70
2022-10-28T01:42:01.654Z,84.70
2022-10-28T01:44:38.687Z,84.80
2022-10-28T01:47:13.357Z,84.70
2022-10-28T01:49:49.476Z,84.80
2022-10-28T01:52:23.591Z,84.70
2022-10-28T01:54:58.209Z,84.80
2022-10-28T01:57:29.481Z,84.70
2022-10-28T01:59:58.293Z,84.90
2022-10-28T02:02:28.533Z,84.90
2022-10-28T02:05:07.842Z,85.00
2022-10-28T02:07:36.104Z,85.10
2022-10-28T02:10:14.585Z,85.20
2022-10-28T02:12:42.885Z,85.10
2022-10-28T02:15:34.396Z,85.30
2022-10-28T02:18:26.535Z,85.20
2022-10-28T02:21:00.209Z,85.10
2022-10-28T02:23:40.607Z,85.10
2022-10-28T02:26:16.672Z,85.00
2022-10-28T02:28:52.052Z,84.90
2022-10-28T02:31:25.366Z,84.90
2022-10-28T02:34:00.364Z,84.80
2022-10-28T02:36:33.783Z,84.70
2022-10-28T02:39:03.789Z,84.70
2022-10-28T02:41:37.993Z,84.60
2022-10-28T02:44:10.327Z,84.80
2022-10-28T02:46:40.787Z,84.90
2022-10-28T02:49:13.440Z,84.70
2022-10-28T02:51:45.954Z,84.90
2022-10-28T02:54:17.983Z,84.80
2022-10-28T02:56:58.598Z,84.70
2022-10-28T02:59:27.243Z,84.70
2022-10-28T03:01:55.578Z,84.90
2022-10-28T03:04:25.480Z,85.00
2022-10-28T03:06:53.759Z,85.10
2022-10-28T03:09:22.124Z,84.90
2022-10-28T03:11:50.477Z,84.60
2022-10-28T03:14:18.686Z,84.70
2022-10-28T03:16:46.907Z,84.60
2022-10-28T03:19:15.154Z,84.50
2022-10-28T03:21:44.761Z,84.50
2022-10-28T03:24:12.991Z,84.60
2022-10-28T03:26:41.265Z,84.50
2022-10-28T03:29:09.502Z,84.40
2022-10-28T03:31:37.749Z,84.30
2022-10-28T03:34:06.025Z,84.30
2022-10-28T03:36:34.306Z,84.30
2022-10-28T03:39:04.600Z,84.50
2022-10-28T03:41:32.864Z,84.40
2022-10-28T03:44:01.245Z,84.70
2022-10-28T03:46:31.141Z,84.50
2022-10-28T03:49:01.913Z,84.70
2022-10-28T03:51:30.183Z,84.70
2022-10-28T03:53:58.434Z,84.70
2022-10-28T03:56:28.072Z,84.50
2022-10-28T03:58:56.338Z,84.60
2022-10-28T04:01:24.685Z,84.70
2022-10-28T04:03:52.992Z,84.60
2022-10-28T04:06:21.208Z,84.70
2022-10-28T04:08:49.444Z,84.70
2022-10-28T04:11:17.814Z,84.80
2022-10-28T04:13:47.399Z,84.80
2022-10-28T04:16:15.608Z,84.90
2022-10-28T04:18:43.884Z,84.70
2022-10-28T04:21:12.115Z,84.60
2022-10-28T04:23:40.382Z,84.60
2022-10-28T04:26:08.581Z,84.60
2022-10-28T04:28:36.811Z,84.60
2022-10-28T04:31:06.722Z,84.60
2022-10-28T04:33:34.925Z,84.80
2022-10-28T04:36:03.188Z,84.60
2022-10-28T04:38:31.409Z,84.50
2022-10-28T04:40:59.817Z,84.50
2022-10-28T04:43:28.018Z,84.40
2022-10-28T04:45:56.261Z,84.50
2022-10-28T04:48:25.913Z,84.70
2022-10-28T04:50:54.228Z,84.70
2022-10-28T04:53:22.447Z,84.60
2022-10-28T04:55:50.668Z,84.70
2022-10-28T04:58:18.878Z,84.60
2022-10-28T05:00:47.116Z,84.60
2022-10-28T05:03:15.336Z,84.70
2022-10-28T05:05:44.950Z,84.80
2022-10-28T05:08:13.309Z,84.90
2022-10-28T05:10:41.576Z,84.80
2022-10-28T05:13:09.859Z,84.80
2022-10-28T05:15:38.127Z,85.00
2022-10-28T05:18:06.389Z,84.90
2022-10-28T05:20:34.730Z,84.90
2022-10-28T05:23:04.334Z,85.00
2022-10-28T05:25:32.576Z,85.00
2022-10-28T05:28:00.962Z,85.20
2022-10-28T05:30:29.982Z,85.30
2022-10-28T05:33:02.580Z,85.30
2022-10-28T05:35:31.140Z,85.20
2022-10-28T05:37:59.653Z,85.30
2022-10-28T05:40:29.365Z,85.30
2022-10-28T05:42:57.621Z,85.40
2022-10-28T05:45:26.097Z,85.60
2022-10-28T05:47:54.740Z,85.40
2022-10-28T05:50:23.843Z,85.50
2022-10-28T05:52:53.913Z,85.40
2022-10-28T05:55:23.851Z,85.60
2022-10-28T05:57:54.334Z,85.50
2022-10-28T06:00:24.966Z,85.70
2022-10-28T06:02:53.458Z,85.60
2022-10-28T06:05:22.044Z,85.60
2022-10-28T06:07:50.399Z,85.80
2022-10-28T06:10:18.936Z,85.90
2022-10-28T06:12:45.649Z,86.10
2022-10-28T06:15:15.508Z,85.80
2022-10-28T06:17:47.352Z,85.80
2022-10-28T06:20:16.843Z,86.00
2022-10-28T06:22:49.565Z,86.00
2022-10-28T06:25:19.477Z,86.10
2022-10-28T06:27:53.551Z,86.00
2022-10-28T06:30:25.076Z,86.30
2022-10-28T06:32:54.554Z,86.20
2022-10-28T06:35:23.169Z,86.20
2022-10-28T06:37:54.983Z,86.30
2022-10-28T06:40:24.915Z,86.30
2022-10-28T06:42:58.169Z,86.30
2022-10-28T06:45:28.567Z,86.40
2022-10-28T06:47:59.236Z,86.50
2022-10-28T06:50:28.236Z,86.50
2022-10-28T06:52:58.169Z,86.50
2022-10-28T06:55:26.999Z,86.50
2022-10-28T06:57:56.154Z,86.50
2022-10-28T07:00:24.728Z,86.50
2022-10-28T07:02:55.287Z,86.50
2022-10-28T07:05:25.448Z,86.50
2022-10-28T07:07:53.996Z,86.40
2022-10-28T07:10:22.460Z,86.40
2022-10-28T07:12:50.856Z,86.30
2022-10-28T07:15:19.362Z,86.30
2022-10-28T07:17:55.282Z,86.40
2022-10-28T07:20:25.141Z,86.40
2022-10-28T07:22:57.977Z,86.30
2022-10-28T07:25:26.475Z,86.30
2022-10-28T07:27:54.960Z,86.30
2022-10-28T07:30:23.539Z,86.20
2022-10-28T07:32:52.052Z,86.20
2022-10-28T07:35:22.157Z,86.00
2022-10-28T07:37:50.402Z,85.90
2022-10-28T07:40:19.427Z,85.70
2022-10-28T07:42:47.646Z,85.70
2022-10-28T07:45:16.163Z,85.70
2022-10-28T07:47:44.481Z,85.60
2022-10-28T07:50:13.262Z,85.60
2022-10-28T07:52:43.033Z,85.30
2022-10-28T07:55:12.580Z,85.10
2022-10-28T07:57:40.804Z,84.90
2022-10-28T08:00:10.469Z,84.90
2022-10-28T08:02:39.370Z,84.50
2022-10-28T08:05:08.636Z,84.60
2022-10-28T08:07:38.689Z,84.60
2022-10-28T08:10:09.824Z,84.80
2022-10-28T08:12:38.090Z,84.80
2022-10-28T08:15:09.565Z,84.50
2022-10-28T08:17:37.811Z,84.00
2022-10-28T08:20:07.349Z,83.80
2022-10-28T08:22:35.680Z,83.70
2022-10-28T08:25:04.047Z,83.20
2022-10-28T08:27:33.880Z,83.00
2022-10-28T08:30:02.177Z,82.60
2022-10-28T08:32:30.403Z,82.60
2022-10-28T08:34:58.747Z,81.90
2022-10-28T08:37:27.335Z,81.40
2022-10-28T08:39:55.569Z,81.10
2022-10-28T08:42:39.030Z,80.50
2022-10-28T08:45:22.069Z,80.60
2022-10-28T08:48:12.357Z,79.60
2022-10-28T08:50:49.481Z,79.10
2022-10-28T08:53:22.902Z,79.00
2022-10-28T08:55:54.833Z,78.80
2022-10-28T08:58:28.054Z,78.40
2022-10-28T09:01:00.010Z,77.30
2022-10-28T09:03:36.771Z,78.00
2022-10-28T09:06:09.467Z,76.70
2022-10-28T09:08:41.588Z,77.30
2022-10-28T09:12:03.752Z,76.80
2022-10-28T09:14:49.147Z,76.60
2022-10-28T09:17:20.284Z,76.60
2022-10-28T09:19:53.385Z,77.40
2022-10-28T09:22:30.023Z,76.10
2022-10-28T09:25:03.189Z,75.60
2022-10-28T09:28:02.503Z,75.60
2022-10-28T09:30:43.084Z,74.50
2022-10-28T09:33:38.226Z,74.30
2022-10-28T09:36:15.583Z,73.90
2022-10-28T09:38:45.626Z,73.30
2022-10-28T09:41:19.712Z,74.50
2022-10-28T09:43:54.596Z,73.50
2022-10-28T09:46:25.380Z,73.40
2022-10-28T09:48:56.454Z,73.40
2022-10-28T09:51:33.189Z,73.10
2022-10-28T09:54:02.963Z,73.30
2022-10-28T09:56:32.294Z,72.70
2022-10-28T09:59:03.770Z,73.70
2022-10-28T10:01:35.994Z,73.50
2022-10-28T10:04:16.536Z,73.30
2022-10-28T10:06:49.097Z,73.60
2022-10-28T10:09:25.015Z,73.30
2022-10-28T10:11:57.078Z,72.90
2022-10-28T10:14:36.455Z,71.90
2022-10-28T10:17:11.469Z,72.50
2022-10-28T10:20:04.284Z,72.90
2022-10-28T10:22:36.457Z,73.00
2022-10-28T10:25:07.513Z,72.50
2022-10-28T10:27:35.780Z,71.70
2022-10-28T10:30:04.579Z,71.50
2022-10-28T10:32:33.571Z,69.40
2022-10-28T10:35:06.761Z,70.00
2022-10-28T10:37:37.778Z,69.80
2022-10-28T10:40:19.303Z,69.20
2022-10-28T10:43:09.624Z,70.10
2022-10-28T10:45:36.175Z,70.60
2022-10-28T10:48:16.072Z,69.30
2022-10-28T10:50:47.435Z,70.50
2022-10-28T10:53:25.483Z,69.40
2022-10-28T10:55:58.524Z,69.80
2022-10-28T10:58:30.098Z,69.70
2022-10-28T11:01:02.154Z,69.90
2022-10-28T11:03:36.790Z,69.20
2022-10-28T11:06:23.250Z,70.10
2022-10-28T11:08:59.181Z,70.40
2022-10-28T11:11:36.113Z,70.00
2022-10-28T11:14:08.720Z,69.90
2022-10-28T11:16:50.056Z,69.40
2022-10-28T11:19:23.297Z,68.60
2022-10-28T11:22:18.900Z,68.40
2022-10-28T11:25:13.763Z,67.60
2022-10-28T11:27:57.591Z,68.00
2022-10-28T11:30:43.770Z,68.60
2022-10-28T11:33:33.436Z,67.20
2022-10-28T11:36:17.104Z,65.70
2022-10-28T11:39:23.281Z,64.90
2022-10-28T11:42:10.479Z,64.50
2022-10-28T11:44:49.079Z,64.60
2022-10-28T11:47:41.067Z,64.50
2022-10-28T11:50:44.629Z,63.50
2022-10-28T11:53:37.617Z,64.10
2022-10-28T11:56:18.844Z,63.70
2022-10-28T11:59:03.079Z,64.10
2022-10-28T12:01:45.953Z,63.90
2022-10-28T12:04:32.298Z,63.30
2022-10-28T12:07:20.320Z,64.10
2022-10-28T12:10:05.077Z,63.60
2022-10-28T12:12:41.420Z,63.30
2022-10-28T12:15:23.131Z,63.50
2022-10-28T12:17:59.313Z,64.10
2022-10-28T12:20:34.087Z,64.50
2022-10-28T12:23:06.541Z,64.80
2022-10-28T12:25:37.926Z,64.30
2022-10-28T12:30:54.793Z,64.80
2022-10-28T12:33:29.157Z,66.40
2022-10-28T12:36:18.122Z,65.40
2022-10-28T12:38:57.420Z,64.10
2022-10-28T12:41:28.682Z,62.60
2022-10-28T12:44:04.537Z,61.00
2022-10-28T12:46:57.208Z,60.90
2022-10-28T12:49:38.478Z,60.30
2022-10-28T12:52:25.317Z,61.00
2022-10-28T12:55:01.104Z,60.80
2022-10-28T12:57:32.828Z,61.90
2022-10-28T13:00:06.269Z,63.00
2022-10-28T13:02:43.057Z,61.00
2022-10-28T13:05:23.234Z,61.90
2022-10-28T13:08:40.586Z,62.00
2022-10-28T13:11:48.909Z,62.10
2022-10-28T13:14:36.546Z,62.40
2022-10-28T13:17:23.666Z,62.30
2022-10-28T13:20:08.078Z,61.90
2022-10-28T13:22:51.212Z,62.20
2022-10-28T13:25:52.948Z,61.60
2022-10-28T13:28:22.704Z,62.00
2022-10-28T13:30:56.522Z,62.30
2022-10-28T13:33:27.398Z,63.00
2022-10-28T13:36:10.887Z,63.40
2022-10-28T13:38:39.892Z,63.00
2022-10-28T13:41:31.337Z,62.60
2022-10-28T13:44:28.419Z,63.70
2022-10-28T13:47:26.231Z,64.70
2022-10-28T13:50:33.800Z,63.20
2022-10-28T13:53:43.640Z,64.70
2022-10-28T13:56:49.566Z,65.10
2022-10-28T13:59:25.039Z,63.70
2022-10-28T14:02:02.293Z,65.30
2022-10-28T14:04:39.598Z,65.30
2022-10-28T14:07:24.451Z,65.50
2022-10-28T14:09:58.648Z,65.60
2022-10-28T14:12:31.343Z,66.30
2022-10-28T14:15:33.918Z,66.10
2022-10-28T14:18:15.885Z,66.70
2022-10-28T14:21:00.722Z,65.90
2022-10-28T14:24:31.718Z,66.00
2022-10-28T14:27:30.796Z,66.20
2022-10-28T14:30:20.250Z,66.10
2022-10-28T14:33:23.111Z,65.40
2022-10-28T14:36:15.306Z,66.40
2022-10-28T14:39:22.478Z,66.00
2022-10-28T14:42:11.917Z,66.40
2022-10-28T14:45:08.779Z,66.10
2022-10-28T14:48:19.936Z,66.70
2022-10-28T14:50:51.433Z,67.20
2022-10-28T14:53:26.564Z,67.70
2022-10-28T14:56:02.634Z,67.30
2022-10-28T14:58:36.687Z,67.60
2022-10-28T15:01:22.979Z,67.60
2022-10-28T15:03:54.713Z,66.90
2022-10-28T15:06:37.445Z,67.80
2022-10-28T15:09:14.797Z,67.60
2022-10-28T15:11:45.682Z,67.20
2022-10-28T15:14:27.261Z,68.20
2022-10-28T15:16:57.888Z,67.30
2022-10-28T15:19:29.144Z,68.90
2022-10-28T15:22:06.179Z,68.20
2022-10-28T15:24:34.971Z,69.10
2022-10-28T15:27:03.313Z,69.00
2022-10-28T15:29:31.646Z,69.00
2022-10-28T15:32:17.202Z,69.10
2022-10-28T15:34:45.623Z,68.90
2022-10-28T15:37:18.826Z,69.10
2022-10-28T15:39:47.205Z,69.50
2022-10-28T15:42:41.652Z,69.00
2022-10-28T15:45:20.678Z,70.00
2022-10-28T15:47:50.733Z,69.90
2022-10-28T15:50:30.528Z,70.20
2022-10-28T15:53:37.883Z,70.50
2022-10-28T15:56:34.364Z,71.10
2022-10-28T15:59:11.489Z,71.60
2022-10-28T16:01:41.148Z,71.70
2022-10-28T16:04:44.514Z,71.90
2022-10-28T16:07:13.096Z,72.00
2022-10-28T16:09:47.501Z,72.10
2022-10-28T16:12:18.910Z,71.90
2022-10-28T16:14:50.706Z,72.30
2022-10-28T16:17:23.203Z,72.60
2022-10-28T16:19:56.372Z,72.90
2022-10-28T16:22:29.077Z,72.70
2022-10-28T16:24:58.222Z,72.70
2022-10-28T16:27:28.321Z,73.10
2022-10-28T16:29:56.593Z,73.50
2022-10-28T16:32:30.080Z,73.60
2022-10-28T16:35:01.481Z,73.40
2022-10-28T16:37:32.325Z,73.20
2022-10-28T16:40:00.422Z,73.80
2022-10-28T16:42:29.040Z,74.80
2022-10-28T16:44:57.310Z,74.80
2022-10-28T16:47:27.616Z,75.10
2022-10-28T16:49:57.622Z,75.30
2022-10-28T16:52:31.214Z,75.00
2022-10-28T16:55:00.078Z,74.90
2022-10-28T16:57:28.567Z,75.20
2022-10-28T16:59:56.980Z,76.10
2022-10-28T17:02:29.601Z,75.90
2022-10-28T17:04:58.500Z,76.70
2022-10-28T17:07:29.313Z,77.00
2022-10-28T17:09:57.991Z,77.00
2022-10-28T17:12:28.380Z,77.30
2022-10-28T17:14:56.677Z,77.80
2022-10-28T17:17:24.933Z,77.30
2022-10-28T17:19:53.193Z,77.70
2022-10-28T17:22:21.549Z,77.70
2022-10-28T17:24:51.230Z,78.60
2022-10-28T17:27:19.473Z,78.30
2022-10-28T17:29:47.775Z,78.00
2022-10-28T17:32:16.517Z,78.90
2022-10-28T17:34:44.821Z,79.30
2022-10-28T17:37:13.194Z,79.40
2022-10-28T17:39:42.311Z,79.50
2022-10-28T17:42:12.315Z,79.60
2022-10-28T17:44:40.829Z,79.40
2022-10-28T17:47:09.128Z,79.50
2022-10-28T17:49:37.336Z,79.90
2022-10-28T17:52:05.646Z,80.10
2022-10-28T17:54:33.944Z,80.00
2022-10-28T17:57:02.213Z,80.20
2022-10-28T17:59:31.837Z,79.90
2022-10-28T18:02:00.229Z,79.70
2022-10-28T18:04:28.594Z,79.70
2022-10-28T18:06:58.705Z,79.90
2022-10-28T18:09:28.267Z,80.00
2022-10-28T18:11:56.554Z,80.00
2022-10-28T18:14:24.837Z,80.50
2022-10-28T18:16:54.502Z,80.40
2022-10-28T18:19:22.891Z,80.10
2022-10-28T18:21:51.138Z,80.50
2022-10-28T18:24:21.929Z,80.40
2022-10-28T18:26:57.067Z,80.30
2022-10-28T18:29:25.790Z,80.40
2022-10-28T18:31:56.765Z,80.50
2022-10-28T18:34:28.263Z,80.50
2022-10-28T18:36:56.574Z,80.70
2022-10-28T18:39:24.883Z,80.90
2022-10-28T18:41:55.907Z,81.00
2022-10-28T18:44:31.695Z,81.50
2022-10-28T18:47:01.404Z,81.60
2022-10-28T18:49:29.715Z,81.70
2022-10-28T18:51:59.526Z,81.20
2022-10-28T18:54:27.811Z,81.50
2022-10-28T18:56:57.690Z,81.80
2022-10-28T18:59:26.426Z,81.80
2022-10-28T19:01:54.830Z,81.60
2022-10-28T19:04:24.813Z,82.00
2022-10-28T19:06:53.040Z,82.00
2022-10-28T19:09:21.308Z,82.10
2022-10-28T19:11:49.517Z,82.10
2022-10-28T19:14:18.061Z,82.00
2022-10-28T19:16:46.313Z,81.90
2022-10-28T19:19:14.606Z,82.30
2022-10-28T19:21:44.204Z,82.10
2022-10-28T19:24:12.584Z,82.00
2022-10-28T19:26:40.778Z,81.70
2022-10-28T19:29:09.085Z,82.00
2022-10-28T19:31:39.056Z,81.90
2022-10-28T19:34:07.358Z,82.10
2022-10-28T19:36:35.599Z,82.40
2022-10-28T19:39:05.381Z,82.60
2022-10-28T19:41:33.817Z,82.00
2022-10-28T19:44:04.196Z,82.50
2022-10-28T19:46:34.506Z,82.30
2022-10-28T19:49:05.887Z,82.10
2022-10-28T19:51:36.145Z,82.10
2022-10-28T19:54:08.670Z,82.30
2022-10-28T19:56:38.169Z,82.40
2022-10-28T19:59:07.854Z,82.20
2022-10-28T20:01:39.756Z,82.30
2022-10-28T20:04:09.891Z,82.50
2022-10-28T20:06:40.961Z,82.60
2022-10-28T20:09:10.825Z,83.10
2022-10-28T20:11:40.434Z,83.20
2022-10-28T20:14:11.802Z,83.10
2022-10-28T20:16:42.866Z,82.90
2022-10-28T20:19:11.618Z,83.00
2022-10-28T20:21:40.772Z,83.00
2022-10-28T20:24:11.026Z,82.90
2022-10-28T20:26:40.291Z,82.70
2022-10-28T20:29:09.992Z,83.50
2022-10-28T20:31:39.857Z,83.30
2022-10-28T20:34:09.243Z,83.40
2022-10-28T20:36:39.671Z,83.70
2022-10-28T20:39:13.413Z,83.90
2022-10-28T20:41:43.402Z,84.10
2022-10-28T20:44:12.084Z,83.90
2022-10-28T20:46:40.839Z,83.90
2022-10-28T20:49:10.232Z,83.80
2022-10-28T20:51:38.496Z,83.90
2022-10-28T20:54:07.123Z,83.70
2022-10-28T20:56:40.335Z,83.50
2022-10-28T20:59:09.049Z,83.30
2022-10-28T21:01:39.863Z,83.50
2022-10-28T21:04:09.449Z,83.60
2022-10-28T21:06:38.146Z,84.40
2022-10-28T21:09:06.456Z,84.40
2022-10-28T21:11:36.185Z,84.30
2022-10-28T21:14:04.478Z,84.50
2022-10-28T21:16:33.359Z,84.70
2022-10-28T21:19:01.910Z,84.70
2022-10-28T21:21:31.476Z,84.90
2022-10-28T21:23:59.790Z,84.70
2022-10-28T21:26:28.055Z,84.40
2022-10-28T21:28:57.735Z,84.50
2022-10-28T21:31:26.278Z,84.80
2022-10-28T21:33:54.560Z,85.10
2022-10-28T21:36:24.183Z,85.20
2022-10-28T21:38:56.111Z,85.10
2022-10-28T21:41:25.768Z,85.00
2022-10-28T21:43:54.933Z,84.90
2022-10-28T21:46:25.465Z,85.10
2022-10-28T21:48:54.473Z,85.50
2022-10-28T21:51:22.842Z,85.60
2022-10-28T21:53:51.090Z,85.90
2022-10-28T21:56:21.318Z,86.00
2022-10-28T21:58:51.584Z,85.80
2022-10-28T22:01:22.858Z,85.60
2022-10-28T22:03:55.583Z,85.20
2022-10-28T22:06:24.446Z,85.10
2022-10-28T22:08:54.298Z,85.70
2022-10-28T22:11:24.717Z,85.90
2022-10-28T22:13:58.581Z,86.40
2022-10-28T22:16:28.159Z,86.20
2022-10-28T22:19:00.101Z,85.90
2022-10-28T22:21:30.924Z,86.50
2022-10-28T22:23:59.477Z,86.50
2022-10-28T22:26:29.804Z,86.70
2022-10-28T22:28:58.396Z,87.00
2022-10-28T22:31:29.420Z,87.10
2022-10-28T22:33:58.982Z,87.00
2022-10-28T22:36:29.701Z,86.60
2022-10-28T22:38:58.063Z,85.80
2022-10-28T22:41:28.620Z,85.60
2022-10-28T22:43:59.460Z,85.50
2022-10-28T22:46:31.838Z,86.20
2022-10-28T22:49:01.689Z,86.40
2022-10-28T22:51:29.989Z,86.60
2022-10-28T22:53:58.420Z,86.60
2022-10-28T22:56:28.386Z,86.50
2022-10-28T22:58:58.724Z,86.70
2022-10-28T23:01:29.156Z,86.50
2022-10-28T23:03:57.815Z,86.00
2022-10-28T23:06:28.542Z,85.60
2022-10-28T23:08:56.843Z,85.90
2022-10-28T23:11:25.203Z,85.90
2022-10-28T23:13:55.021Z,85.60
2022-10-28T23:16:24.664Z,86.30
2022-10-28T23:18:53.773Z,87.20
2022-10-28T23:21:24.383Z,87.60
2022-10-28T23:23:56.589Z,87.30
2022-10-28T23:26:25.764Z,87.20
2022-10-28T23:28:56.781Z,87.30
2022-10-28T23:31:25.184Z,87.10
2022-10-28T23:33:55.755Z,87.70
2022-10-28T23:36:24.143Z,87.70
2022-10-28T23:38:52.525Z,87.70
2022-10-28T23:41:22.138Z,88.00
2022-10-28T23:43:50.621Z,87.70
2022-10-28T23:46:20.441Z,87.70
2022-10-28T23:48:48.743Z,87.70
2022-10-28T23:51:19.226Z,88.20
2022-10-28T23:53:47.466Z,87.90
2022-10-28T23:56:15.777Z,88.30
2022-10-28T23:58:45.474Z,88.20
